Aérodrome :
LOGIN :

S'inscrire | Disclaimer

   EN    FR    IT 

 










Légende :    VFR   VFR Marginal   IFR   IFR Intensif   IFR Très Intensif
Visi : 
Plafond : 
>= 8 km
>= 3000ft
5 à 8 km
1000 à 3000 ft
1500m à 5 km
500 à 1000 ft
800 à 1500m
200 à 500 ft
< 800m
< 200 ft
Symboles :   Orages  Brouillard  Fortes neiges  Fortes précipitations  Vent > 20 kt
SIGMETs :   Divers  Orages  Givrage  Turbulence  Onde Orograph.  Cendres Volcan.






- Altitude de l'aérodrome : 1535 ft
- Code IATA : OUD


GMFO - Ouja Angads

DERNIER METAR :
  • 251830Z 32011KT 9999 FEW030 SCT230 20/16 Q1022 NOSIG

METARs EXPIRÉS :
  • 251800Z 32014KT 9999 FEW030 SCT230 20/16 Q1022 NOSIG
  • 251730Z 32015KT 9999 FEW030 SCT230 22/16 Q1021 NOSIG
  • 251700Z 32015KT 9999 FEW030 SCT230 24/16 Q1021 NOSIG
  • 251630Z 32015KT 9999 NCD 24/17 Q1021 NOSIG
  • 251600Z 32013KT 9999 FEW033 SCT230 26/16 Q1021 NOSIG

TAF TAF GMFO
Valide du 25 à 18h jusqu'au 27 à 00h UTC


251700Z 2518/2624 34012KT CAVOK
BECMG 2520/2522 VRB02KT 8000 BKN010
PROB40
TEMPO 2602/2609 1500 BR OVC006



MET'MAP, la Météo Aéronautique d'un coup d'oeil ! - Copyright ORBIFLY Décembre 2007 - Disclaimer

ORBIFLY MET'MAP TEAM :

Programmation & Développement : Alexandra Zaïnal
Sur une idée originale de : Baudouin d'Aumeries
Assistance à la programmation : Marc-Olivier Méhu
Soutien technique & logistique : Manuel Goepfert

Contact : metmap@orbifly.com




SOURCES & CREDITS :

   NOAA